Aeroporto :
LOGIN :

Iscrizione | Disclaimer

   EN    FR    IT 

 










Sommario :    VFR   VFR Marginale   IFR   IFR Intensivo   IFR Molto Intensivo
Visibilità : 
Base nubi : 
>= 8 km
>= 3000ft
5 / 8 km
1000 / 3000 ft
1500m / 5 km
500 / 1000 ft
800 / 1500m
200 / 500 ft
< 800m
< 200 ft
Simboli :   Temporali  Nebbia  Neve Forte  Precipitazioni Forti  Vento > 20 kt
SIGMETs :   Varie  Temporali  Ghiacco  Turbolenza  Onda orograficha  Ceneri Vulcaniche







- Altitudine del aeroporto : 12 ft
- Codice IATA : NCE
- Carte del aeroporto


LFMN - Nice

ULTIMO METAR :
  • 170930Z 32007KT CAVOK 12/00 Q1029 NOSIG

METARs OBSOLETI :
  • 170900Z 33008KT CAVOK 11/00 Q1029 NOSIG
  • 170830Z 33010KT CAVOK 10/00 Q1029 NOSIG
  • 170800Z 33009KT CAVOK 08/M00 Q1030 NOSIG
  • 170730Z 33010KT CAVOK 08/M00 Q1029 NOSIG
  • 170700Z 33010KT CAVOK 07/M00 Q1029 NOSIG

TAF TAF LFMN
Valido dal 17 a 09 ore il 18 a 15 ore UTC


170800Z 1709/1815 09008KT CAVOK
TEMPO 1713/1717 20010KT
PROB30
TEMPO 1717/1719 VRB03KT 4000 BR
BECMG 1719/1721 34010KT
ATIS : +33 4 93 17 21 16
Nessun NOTAM noto per questo aeroporto.



MetMap, La meteo Aeronautica in un colpo d'occhio ! - Copyright ORBIFLY Dicembre 2007 - Disclaimer

ORBIFLY MET'MAP TEAM :

Programmazione e sviluppo : Alexandra Zaïnal
Concezione e sviluppo : Baudouin d'Aumeries
Co-Programmazione e sviluppo : Marc-Olivier Méhu
Supporto tecnico e logistico : Manuel Goepfert
Aiuto per la traduzione : Arnaldo La Scala

Contatto : metmap@orbifly.com




FONTI E CREDITI :

   NOAA